sensor_id;sensor_type;location;lat;lon;timestamp;pressure;altitude;pressure_sealevel;temperature;humidity
72721;BME280;60835;50.974;10.322;2024-01-06T00:02:06;96993.91;;;5.44;100.00
72721;BME280;60835;50.974;10.322;2024-01-06T00:04:32;97009.00;;;5.42;100.00
72721;BME280;60835;50.974;10.322;2024-01-06T00:06:59;97008.38;;;5.48;100.00
72721;BME280;60835;50.974;10.322;2024-01-06T00:09:25;97003.78;;;5.50;100.00
72721;BME280;60835;50.974;10.322;2024-01-06T00:11:52;97003.63;;;5.51;100.00
72721;BME280;60835;50.974;10.322;2024-01-06T00:14:19;97011.84;;;5.57;100.00
72721;BME280;60835;50.974;10.322;2024-01-06T00:16:45;97006.91;;;5.53;100.00
72721;BME280;60835;50.974;10.322;2024-01-06T00:19:12;96997.06;;;5.47;100.00
72721;BME280;60835;50.974;10.322;2024-01-06T00:21:38;97002.16;;;5.57;100.00
72721;BME280;60835;50.974;10.322;2024-01-06T00:24:05;97011.34;;;5.53;100.00
72721;BME280;60835;50.974;10.322;2024-01-06T00:26:31;96996.84;;;5.41;100.00
72721;BME280;60835;50.974;10.322;2024-01-06T00:28:58;97006.91;;;5.53;100.00
72721;BME280;60835;50.974;10.322;2024-01-06T00:31:24;97009.06;;;5.58;100.00
72721;BME280;60835;50.974;10.322;2024-01-06T00:33:51;97001.81;;;5.52;100.00
72721;BME280;60835;50.974;10.322;2024-01-06T00:36:18;96999.41;;;5.59;100.00
72721;BME280;60835;50.974;10.322;2024-01-06T00:38:44;97008.38;;;5.56;100.00
72721;BME280;60835;50.974;10.322;2024-01-06T00:41:11;97027.94;;;5.70;100.00
72721;BME280;60835;50.974;10.322;2024-01-06T00:43:37;97033.38;;;5.68;100.00
72721;BME280;60835;50.974;10.322;2024-01-06T00:46:04;97025.50;;;5.68;100.00
72721;BME280;60835;50.974;10.322;2024-01-06T00:48:30;97026.13;;;5.62;100.00
72721;BME280;60835;50.974;10.322;2024-01-06T00:50:57;97032.22;;;5.71;100.00
72721;BME280;60835;50.974;10.322;2024-01-06T00:53:24;97029.78;;;5.77;100.00
72721;BME280;60835;50.974;10.322;2024-01-06T00:55:50;97033.09;;;5.79;100.00
72721;BME280;60835;50.974;10.322;2024-01-06T00:58:17;97038.53;;;5.86;100.00
72721;BME280;60835;50.974;10.322;2024-01-06T01:00:44;97049.81;;;5.78;100.00
72721;BME280;60835;50.974;10.322;2024-01-06T01:03:10;97029.41;;;5.64;100.00
72721;BME280;60835;50.974;10.322;2024-01-06T01:05:37;97062.94;;;5.78;100.00
72721;BME280;60835;50.974;10.322;2024-01-06T01:08:04;97049.78;;;5.70;100.00
72721;BME280;60835;50.974;10.322;2024-01-06T01:10:31;97055.03;;;5.70;100.00
72721;BME280;60835;50.974;10.322;2024-01-06T01:12:57;97052.41;;;5.70;100.00
72721;BME280;60835;50.974;10.322;2024-01-06T01:15:24;97053.75;;;5.74;100.00
72721;BME280;60835;50.974;10.322;2024-01-06T01:17:50;97058.31;;;5.72;100.00
72721;BME280;60835;50.974;10.322;2024-01-06T01:20:17;97064.91;;;5.76;100.00
72721;BME280;60835;50.974;10.322;2024-01-06T01:22:44;97070.97;;;5.77;100.00
72721;BME280;60835;50.974;10.322;2024-01-06T01:25:10;97069.31;;;5.76;100.00
72721;BME280;60835;50.974;10.322;2024-01-06T01:27:38;97087.50;;;5.77;100.00
72721;BME280;60835;50.974;10.322;2024-01-06T01:30:05;97087.84;;;5.74;100.00
72721;BME280;60835;50.974;10.322;2024-01-06T01:32:33;97074.38;;;5.77;100.00
72721;BME280;60835;50.974;10.322;2024-01-06T01:35:00;97086.06;;;5.83;100.00
72721;BME280;60835;50.974;10.322;2024-01-06T01:37:26;97084.97;;;5.85;100.00
72721;BME280;60835;50.974;10.322;2024-01-06T01:39:53;97084.25;;;5.83;100.00
72721;BME280;60835;50.974;10.322;2024-01-06T01:42:19;97087.19;;;5.80;100.00
72721;BME280;60835;50.974;10.322;2024-01-06T01:44:46;97094.31;;;5.88;100.00
72721;BME280;60835;50.974;10.322;2024-01-06T01:47:13;97092.13;;;5.83;100.00
72721;BME280;60835;50.974;10.322;2024-01-06T01:49:45;97091.56;;;5.89;100.00
72721;BME280;60835;50.974;10.322;2024-01-06T01:52:14;97089.28;;;5.94;100.00
72721;BME280;60835;50.974;10.322;2024-01-06T01:54:42;97099.44;;;5.89;100.00
72721;BME280;60835;50.974;10.322;2024-01-06T01:57:11;97092.69;;;5.87;100.00
72721;BME280;60835;50.974;10.322;2024-01-06T01:59:39;97101.91;;;5.99;100.00
72721;BME280;60835;50.974;10.322;2024-01-06T02:02:06;97100.09;;;5.91;100.00
72721;BME280;60835;50.974;10.322;2024-01-06T02:04:33;97105.34;;;5.91;100.00
72721;BME280;60835;50.974;10.322;2024-01-06T02:06:59;97101.78;;;6.00;100.00
72721;BME280;60835;50.974;10.322;2024-01-06T02:09:26;97104.06;;;5.95;100.00
72721;BME280;60835;50.974;10.322;2024-01-06T02:11:59;97114.91;;;6.00;100.00
72721;BME280;60835;50.974;10.322;2024-01-06T02:14:25;97097.50;;;5.99;100.00
72721;BME280;60835;50.974;10.322;2024-01-06T02:16:52;97094.84;;;5.91;100.00
72721;BME280;60835;50.974;10.322;2024-01-06T02:19:18;97091.56;;;5.89;100.00
72721;BME280;60835;50.974;10.322;2024-01-06T02:21:51;97101.59;;;6.02;100.00
72721;BME280;60835;50.974;10.322;2024-01-06T02:24:18;97105.84;;;5.95;100.00
72721;BME280;60835;50.974;10.322;2024-01-06T02:26:44;97105.81;;;5.87;100.00
72721;BME280;60835;50.974;10.322;2024-01-06T02:29:11;97104.03;;;5.87;100.00
72721;BME280;60835;50.974;10.322;2024-01-06T02:31:38;97107.81;;;5.93;100.00
72721;BME280;60835;50.974;10.322;2024-01-06T02:34:05;97105.69;;;5.96;100.00
72721;BME280;60835;50.974;10.322;2024-01-06T02:36:32;97109.63;;;5.92;100.00
72721;BME280;60835;50.974;10.322;2024-01-06T02:38:58;97111.09;;;5.95;100.00
72721;BME280;60835;50.974;10.322;2024-01-06T02:41:25;97113.22;;;5.91;100.00
72721;BME280;60835;50.974;10.322;2024-01-06T02:43:54;97097.81;;;5.96;100.00
72721;BME280;60835;50.974;10.322;2024-01-06T02:46:21;97113.22;;;5.91;100.00
72721;BME280;60835;50.974;10.322;2024-01-06T02:48:48;97122.72;;;5.92;100.00
72721;BME280;60835;50.974;10.322;2024-01-06T02:51:15;97122.09;;;5.98;100.00
72721;BME280;60835;50.974;10.322;2024-01-06T02:53:41;97110.88;;;5.88;100.00
72721;BME280;60835;50.974;10.322;2024-01-06T02:56:11;97122.16;;;5.81;100.00
72721;BME280;60835;50.974;10.322;2024-01-06T02:58:39;97121.19;;;5.82;100.00
72721;BME280;60835;50.974;10.322;2024-01-06T03:01:05;97120.91;;;5.85;100.00
72721;BME280;60835;50.974;10.322;2024-01-06T03:03:32;97112.25;;;5.92;100.00
72721;BME280;60835;50.974;10.322;2024-01-06T03:05:59;97104.22;;;5.68;100.00
72721;BME280;60835;50.974;10.322;2024-01-06T03:08:26;97128.59;;;5.86;100.00
72721;BME280;60835;50.974;10.322;2024-01-06T03:10:53;97118.66;;;5.72;100.00
72721;BME280;60835;50.974;10.322;2024-01-06T03:13:20;97124.63;;;5.82;100.00
72721;BME280;60835;50.974;10.322;2024-01-06T03:15:46;97112.44;;;5.73;100.00
72721;BME280;60835;50.974;10.322;2024-01-06T03:18:13;97120.91;;;5.67;100.00
72721;BME280;60835;50.974;10.322;2024-01-06T03:20:39;97125.19;;;5.68;100.00
72721;BME280;60835;50.974;10.322;2024-01-06T03:23:06;97118.28;;;5.67;100.00
72721;BME280;60835;50.974;10.322;2024-01-06T03:25:32;97114.72;;;5.68;100.00
72721;BME280;60835;50.974;10.322;2024-01-06T03:27:59;97121.63;;;5.69;100.00
72721;BME280;60835;50.974;10.322;2024-01-06T03:30:25;97116.38;;;5.69;100.00
72721;BME280;60835;50.974;10.322;2024-01-06T03:32:52;97108.09;;;5.64;100.00
72721;BME280;60835;50.974;10.322;2024-01-06T03:35:19;97116.66;;;5.66;100.00
72721;BME280;60835;50.974;10.322;2024-01-06T03:37:45;97115.00;;;5.65;100.00
72721;BME280;60835;50.974;10.322;2024-01-06T03:40:12;97108.84;;;5.74;100.00
72721;BME280;60835;50.974;10.322;2024-01-06T03:42:39;97118.28;;;5.67;100.00
72721;BME280;60835;50.974;10.322;2024-01-06T03:45:06;97119.16;;;5.76;100.00
72721;BME280;60835;50.974;10.322;2024-01-06T03:47:32;97137.00;;;5.72;100.00
72721;BME280;60835;50.974;10.322;2024-01-06T03:49:59;97126.84;;;5.69;100.00
72721;BME280;60835;50.974;10.322;2024-01-06T03:52:27;97106.56;;;5.53;100.00
72721;BME280;60835;50.974;10.322;2024-01-06T03:54:53;97123.75;;;5.74;100.00
72721;BME280;60835;50.974;10.322;2024-01-06T03:57:20;97131.97;;;5.79;100.00
72721;BME280;60835;50.974;10.322;2024-01-06T03:59:46;97130.31;;;5.78;100.00
72721;BME280;60835;50.974;10.322;2024-01-06T04:02:13;97123.28;;;5.78;100.00
72721;BME280;60835;50.974;10.322;2024-01-06T04:04:40;97129.50;;;5.77;100.00
72721;BME280;60835;50.974;10.322;2024-01-06T04:07:06;97135.75;;;5.76;100.00
72721;BME280;60835;50.974;10.322;2024-01-06T04:09:33;97137.00;;;5.72;100.00
72721;BME280;60835;50.974;10.322;2024-01-06T04:11:59;97148.56;;;5.79;100.00
72721;BME280;60835;50.974;10.322;2024-01-06T04:14:27;97146.38;;;5.75;100.00
72721;BME280;60835;50.974;10.322;2024-01-06T04:16:55;97145.56;;;5.74;100.00
72721;BME280;60835;50.974;10.322;2024-01-06T04:19:23;97147.50;;;5.72;100.00
72721;BME280;60835;50.974;10.322;2024-01-06T04:21:50;97145.06;;;5.71;100.00
72721;BME280;60835;50.974;10.322;2024-01-06T04:24:17;97142.06;;;5.66;100.00
72721;BME280;60835;50.974;10.322;2024-01-06T04:26:44;97123.91;;;5.72;100.00
72721;BME280;60835;50.974;10.322;2024-01-06T04:29:11;97138.66;;;5.73;100.00
72721;BME280;60835;50.974;10.322;2024-01-06T04:31:39;97135.38;;;5.71;100.00
72721;BME280;60835;50.974;10.322;2024-01-06T04:34:06;97140.94;;;5.68;100.00
72721;BME280;60835;50.974;10.322;2024-01-06T04:36:32;97143.41;;;5.70;100.00
72721;BME280;60835;50.974;10.322;2024-01-06T04:38:59;97134.34;;;5.64;100.00
72721;BME280;60835;50.974;10.322;2024-01-06T04:41:25;97139.44;;;5.66;100.00
72721;BME280;60835;50.974;10.322;2024-01-06T04:43:52;97137.66;;;5.66;100.00
72721;BME280;60835;50.974;10.322;2024-01-06T04:46:18;97138.16;;;5.70;100.00
72721;BME280;60835;50.974;10.322;2024-01-06T04:48:45;97136.72;;;5.75;100.00
72721;BME280;60835;50.974;10.322;2024-01-06T04:51:11;97123.28;;;5.78;100.00
72721;BME280;60835;50.974;10.322;2024-01-06T04:53:38;97136.22;;;5.72;100.00
72721;BME280;60835;50.974;10.322;2024-01-06T04:56:07;97135.44;;;5.79;100.00
72721;BME280;60835;50.974;10.322;2024-01-06T04:58:34;97138.16;;;5.70;100.00
72721;BME280;60835;50.974;10.322;2024-01-06T05:01:01;97133.03;;;5.60;100.00
72721;BME280;60835;50.974;10.322;2024-01-06T05:03:29;97137.34;;;5.69;100.00
72721;BME280;60835;50.974;10.322;2024-01-06T05:05:55;97129.00;;;5.74;100.00
72721;BME280;60835;50.974;10.322;2024-01-06T05:08:22;97139.59;;;5.64;100.00
72721;BME280;60835;50.974;10.322;2024-01-06T05:10:49;97127.97;;;5.67;100.00
72721;BME280;60835;50.974;10.322;2024-01-06T05:13:15;97129.63;;;5.68;100.00
72721;BME280;60835;50.974;10.322;2024-01-06T05:15:43;97123.50;;;5.59;100.00
72721;BME280;60835;50.974;10.322;2024-01-06T05:18:10;97113.28;;;5.48;100.00
72721;BME280;60835;50.974;10.322;2024-01-06T05:20:37;97123.31;;;5.52;100.00
72721;BME280;60835;50.974;10.322;2024-01-06T05:23:03;97124.09;;;5.45;100.00
72721;BME280;60835;50.974;10.322;2024-01-06T05:25:30;97118.78;;;5.37;100.00
72721;BME280;60835;50.974;10.322;2024-01-06T05:27:56;97127.16;;;5.40;100.00
72721;BME280;60835;50.974;10.322;2024-01-06T05:30:23;97122.72;;;5.41;100.00
72721;BME280;60835;50.974;10.322;2024-01-06T05:32:50;97136.63;;;5.33;100.00
72721;BME280;60835;50.974;10.322;2024-01-06T05:35:17;97136.63;;;5.33;100.00
72721;BME280;60835;50.974;10.322;2024-01-06T05:37:43;97135.78;;;5.33;100.00
72721;BME280;60835;50.974;10.322;2024-01-06T05:40:10;97121.59;;;5.18;100.00
72721;BME280;60835;50.974;10.322;2024-01-06T05:42:37;97124.56;;;5.23;100.00
72721;BME280;60835;50.974;10.322;2024-01-06T05:45:04;97121.28;;;5.21;100.00
72721;BME280;60835;50.974;10.322;2024-01-06T05:47:31;97126.84;;;5.18;100.00
72721;BME280;60835;50.974;10.322;2024-01-06T05:49:58;97128.63;;;5.17;100.00
72721;BME280;60835;50.974;10.322;2024-01-06T05:52:25;97106.25;;;5.05;100.00
72721;BME280;60835;50.974;10.322;2024-01-06T05:54:51;97122.50;;;5.09;100.00
72721;BME280;60835;50.974;10.322;2024-01-06T05:57:18;97121.03;;;4.88;100.00
72721;BME280;60835;50.974;10.322;2024-01-06T05:59:44;97123.06;;;4.95;100.00
72721;BME280;60835;50.974;10.322;2024-01-06T06:02:11;97133.06;;;4.99;100.00
72721;BME280;60835;50.974;10.322;2024-01-06T06:04:37;97126.16;;;4.98;100.00
72721;BME280;60835;50.974;10.322;2024-01-06T06:07:04;97117.28;;;4.91;100.00
72721;BME280;60835;50.974;10.322;2024-01-06T06:09:30;97113.81;;;4.90;100.00
72721;BME280;60835;50.974;10.322;2024-01-06T06:11:57;97106.34;;;4.96;100.00
72721;BME280;60835;50.974;10.322;2024-01-06T06:14:24;97103.88;;;4.94;100.00
72721;BME280;60835;50.974;10.322;2024-01-06T06:16:54;97113.91;;;4.81;100.00
72721;BME280;60835;50.974;10.322;2024-01-06T06:19:20;97092.44;;;4.77;100.00
72721;BME280;60835;50.974;10.322;2024-01-06T06:21:47;97085.75;;;4.83;100.00
72721;BME280;60835;50.974;10.322;2024-01-06T06:24:14;97079.94;;;4.71;100.00
72721;BME280;60835;50.974;10.322;2024-01-06T06:26:40;97091.09;;;4.73;100.00
72721;BME280;60835;50.974;10.322;2024-01-06T06:29:07;97077.25;;;4.46;100.00
72721;BME280;60835;50.974;10.322;2024-01-06T06:31:34;97087.56;;;4.65;100.00
72721;BME280;60835;50.974;10.322;2024-01-06T06:34:01;97084.50;;;4.69;100.00
72721;BME280;60835;50.974;10.322;2024-01-06T06:36:32;97083.66;;;4.69;100.00
72721;BME280;60835;50.974;10.322;2024-01-06T06:38:59;97082.19;;;4.66;100.00
72721;BME280;60835;50.974;10.322;2024-01-06T06:41:26;97093.03;;;4.71;100.00
72721;BME280;60835;50.974;10.322;2024-01-06T06:43:53;97106.97;;;4.54;100.00
72721;BME280;60835;50.974;10.322;2024-01-06T06:46:19;97109.66;;;4.62;100.00
72721;BME280;60835;50.974;10.322;2024-01-06T06:48:46;97111.91;;;4.57;100.00
72721;BME280;60835;50.974;10.322;2024-01-06T06:51:12;97119.69;;;4.49;100.00
72721;BME280;60835;50.974;10.322;2024-01-06T06:53:39;97108.13;;;4.42;100.00
72721;BME280;60835;50.974;10.322;2024-01-06T06:56:05;97084.09;;;4.29;100.00
72721;BME280;60835;50.974;10.322;2024-01-06T06:58:33;97103.72;;;4.43;100.00
72721;BME280;60835;50.974;10.322;2024-01-06T07:00:59;97101.91;;;4.25;100.00
72721;BME280;60835;50.974;10.322;2024-01-06T07:03:26;97095.56;;;4.28;100.00
72721;BME280;60835;50.974;10.322;2024-01-06T07:05:53;97097.81;;;4.23;100.00
72721;BME280;60835;50.974;10.322;2024-01-06T07:08:20;97108.38;;;4.04;100.00
72721;BME280;60835;50.974;10.322;2024-01-06T07:10:47;97093.72;;;4.11;100.00
72721;BME280;60835;50.974;10.322;2024-01-06T07:13:14;97102.38;;;3.94;100.00
72721;BME280;60835;50.974;10.322;2024-01-06T07:15:40;97086.13;;;3.90;100.00
72721;BME280;60835;50.974;10.322;2024-01-06T07:18:08;97082.50;;;3.74;100.00
72721;BME280;60835;50.974;10.322;2024-01-06T07:20:35;97074.25;;;3.68;100.00
72721;BME280;60835;50.974;10.322;2024-01-06T07:23:02;97053.22;;;3.60;100.00
72721;BME280;60835;50.974;10.322;2024-01-06T07:25:29;97062.59;;;3.63;100.00
72721;BME280;60835;50.974;10.322;2024-01-06T07:27:56;97054.44;;;3.76;100.00
72721;BME280;60835;50.974;10.322;2024-01-06T07:30:23;97049.28;;;3.84;100.00
72721;BME280;60835;50.974;10.322;2024-01-06T07:32:50;97042.94;;;3.86;100.00
72721;BME280;60835;50.974;10.322;2024-01-06T07:35:18;97042.94;;;3.86;100.00
72721;BME280;60835;50.974;10.322;2024-01-06T07:37:45;97033.50;;;3.76;100.00
72721;BME280;60835;50.974;10.322;2024-01-06T07:40:11;97059.56;;;3.67;100.00
72721;BME280;60835;50.974;10.322;2024-01-06T07:42:39;97060.03;;;3.81;100.00
72721;BME280;60835;50.974;10.322;2024-01-06T07:45:06;97048.97;;;3.87;100.00
72721;BME280;60835;50.974;10.322;2024-01-06T07:47:33;97042.00;;;4.05;100.00
72721;BME280;60835;50.974;10.322;2024-01-06T07:50:01;97034.56;;;4.00;100.00
72721;BME280;60835;50.974;10.322;2024-01-06T07:52:28;97028.50;;;4.00;100.00
72721;BME280;60835;50.974;10.322;2024-01-06T07:54:54;97041.69;;;4.08;100.00
72721;BME280;60835;50.974;10.322;2024-01-06T07:57:21;97044.16;;;4.09;100.00
72721;BME280;60835;50.974;10.322;2024-01-06T07:59:48;97058.28;;;3.99;100.00
72721;BME280;60835;50.974;10.322;2024-01-06T08:02:14;97045.19;;;3.99;100.00
72721;BME280;60835;50.974;10.322;2024-01-06T08:04:41;97032.28;;;4.15;100.00
72721;BME280;60835;50.974;10.322;2024-01-06T08:07:07;97042.13;;;4.21;100.00
72721;BME280;60835;50.974;10.322;2024-01-06T08:09:34;97024.81;;;4.20;100.00
72721;BME280;60835;50.974;10.322;2024-01-06T08:12:01;97053.69;;;4.28;100.00
72721;BME280;60835;50.974;10.322;2024-01-06T08:14:29;97057.22;;;4.37;100.00
72721;BME280;60835;50.974;10.322;2024-01-06T08:16:56;97053.84;;;4.44;100.00
72721;BME280;60835;50.974;10.322;2024-01-06T08:19:22;97063.69;;;4.50;100.00
72721;BME280;60835;50.974;10.322;2024-01-06T08:21:49;97060.78;;;4.53;100.00
72721;BME280;60835;50.974;10.322;2024-01-06T08:24:15;97085.41;;;4.60;100.00
72721;BME280;60835;50.974;10.322;2024-01-06T08:26:42;97058.09;;;4.45;100.00
72721;BME280;60835;50.974;10.322;2024-01-06T08:29:09;97059.97;;;4.70;100.00
72721;BME280;60835;50.974;10.322;2024-01-06T08:31:36;97075.69;;;4.70;100.00
72721;BME280;60835;50.974;10.322;2024-01-06T08:34:02;97087.13;;;4.69;100.00
72721;BME280;60835;50.974;10.322;2024-01-06T08:36:32;97081.75;;;4.71;100.00
72721;BME280;60835;50.974;10.322;2024-01-06T08:38:58;97086.28;;;4.69;100.00
72721;BME280;60835;50.974;10.322;2024-01-06T08:41:24;97064.69;;;4.92;100.00
72721;BME280;60835;50.974;10.322;2024-01-06T08:43:51;97066.91;;;5.23;100.00
72721;BME280;60835;50.974;10.322;2024-01-06T08:46:17;97087.25;;;5.29;100.00
72721;BME280;60835;50.974;10.322;2024-01-06T08:48:44;97094.06;;;5.39;100.00
72721;BME280;60835;50.974;10.322;2024-01-06T08:51:10;97080.91;;;5.14;100.00
72721;BME280;60835;50.974;10.322;2024-01-06T08:53:37;97082.69;;;4.87;100.00
72721;BME280;60835;50.974;10.322;2024-01-06T08:56:04;97144.97;;;4.93;100.00
72721;BME280;60835;50.974;10.322;2024-01-06T08:58:30;97135.72;;;4.81;100.00
72721;BME280;60835;50.974;10.322;2024-01-06T09:00:57;97132.16;;;4.90;100.00
72721;BME280;60835;50.974;10.322;2024-01-06T09:03:23;97136.50;;;4.82;100.00
72721;BME280;60835;50.974;10.322;2024-01-06T09:05:55;97142.00;;;4.88;100.00
72721;BME280;60835;50.974;10.322;2024-01-06T09:08:22;97137.84;;;5.21;100.00
72721;BME280;60835;50.974;10.322;2024-01-06T09:10:50;97137.13;;;5.37;100.00
72721;BME280;60835;50.974;10.322;2024-01-06T09:13:23;97186.75;;;5.13;100.00
72721;BME280;60835;50.974;10.322;2024-01-06T09:15:51;97160.56;;;5.38;100.00
72721;BME280;60835;50.974;10.322;2024-01-06T09:18:18;97180.84;;;5.54;100.00
72721;BME280;60835;50.974;10.322;2024-01-06T09:20:46;97195.47;;;5.57;100.00
72721;BME280;60835;50.974;10.322;2024-01-06T09:23:16;97214.88;;;5.46;100.00
72721;BME280;60835;50.974;10.322;2024-01-06T09:25:43;97234.84;;;5.39;100.00
72721;BME280;60835;50.974;10.322;2024-01-06T09:28:09;97226.44;;;5.35;100.00
72721;BME280;60835;50.974;10.322;2024-01-06T09:30:37;97199.28;;;5.19;100.00
72721;BME280;60835;50.974;10.322;2024-01-06T09:33:04;97245.31;;;5.39;100.00
72721;BME280;60835;50.974;10.322;2024-01-06T09:35:31;97233.31;;;5.54;100.00
72721;BME280;60835;50.974;10.322;2024-01-06T09:37:57;97234.44;;;5.51;100.00
72721;BME280;60835;50.974;10.322;2024-01-06T09:40:24;97245.31;;;5.39;100.00
72721;BME280;60835;50.974;10.322;2024-01-06T09:42:51;97249.22;;;5.35;100.00
72721;BME280;60835;50.974;10.322;2024-01-06T09:45:18;97256.25;;;5.17;100.00
72721;BME280;60835;50.974;10.322;2024-01-06T09:47:49;97257.69;;;5.29;100.00
72721;BME280;60835;50.974;10.322;2024-01-06T09:50:19;97261.94;;;5.30;100.00
72721;BME280;60835;50.974;10.322;2024-01-06T09:52:47;97250.25;;;5.07;100.00
72721;BME280;60835;50.974;10.322;2024-01-06T09:55:25;97260.63;;;5.26;100.00
72721;BME280;60835;50.974;10.322;2024-01-06T09:57:54;97251.91;;;5.43;100.00
72721;BME280;60835;50.974;10.322;2024-01-06T10:00:21;97244.94;;;5.51;100.00
72721;BME280;60835;50.974;10.322;2024-01-06T10:02:49;97253.03;;;5.58;100.00
72721;BME280;60835;50.974;10.322;2024-01-06T10:05:16;97255.34;;;5.61;100.00
72721;BME280;60835;50.974;10.322;2024-01-06T10:07:44;97258.28;;;5.58;100.00
72721;BME280;60835;50.974;10.322;2024-01-06T10:10:12;97262.22;;;5.62;100.00
72721;BME280;60835;50.974;10.322;2024-01-06T10:12:40;97264.41;;;5.67;100.00
72721;BME280;60835;50.974;10.322;2024-01-06T10:15:09;97252.63;;;5.88;100.00
72721;BME280;60835;50.974;10.322;2024-01-06T10:17:37;97248.06;;;5.90;100.00
72721;BME280;60835;50.974;10.322;2024-01-06T10:20:10;97268.38;;;5.88;100.00
72721;BME280;60835;50.974;10.322;2024-01-06T10:22:38;97267.53;;;5.88;100.00
72721;BME280;60835;50.974;10.322;2024-01-06T10:25:07;97266.47;;;5.98;100.00
72721;BME280;60835;50.974;10.322;2024-01-06T10:27:38;97273.44;;;6.07;100.00
72721;BME280;60835;50.974;10.322;2024-01-06T10:30:09;97276.06;;;6.07;100.00
72721;BME280;60835;50.974;10.322;2024-01-06T10:32:37;97274.09;;;6.09;100.00
72721;BME280;60835;50.974;10.322;2024-01-06T10:35:04;97297.25;;;5.88;100.00
72721;BME280;60835;50.974;10.322;2024-01-06T10:37:33;97280.03;;;6.11;100.00
72721;BME280;60835;50.974;10.322;2024-01-06T10:40:09;97270.13;;;6.05;100.00
72721;BME280;60835;50.974;10.322;2024-01-06T10:42:37;97274.38;;;6.06;100.00
72721;BME280;60835;50.974;10.322;2024-01-06T10:45:12;97280.34;;;6.08;100.00
72721;BME280;60835;50.974;10.322;2024-01-06T10:47:41;97285.94;;;6.13;100.00
72721;BME280;60835;50.974;10.322;2024-01-06T10:50:09;97284.03;;;6.24;100.00
72721;BME280;60835;50.974;10.322;2024-01-06T10:52:38;97283.91;;;6.33;100.00
72721;BME280;60835;50.974;10.322;2024-01-06T10:55:05;97282.47;;;6.39;100.00
72721;BME280;60835;50.974;10.322;2024-01-06T10:57:32;97291.00;;;6.33;100.00
72721;BME280;60835;50.974;10.322;2024-01-06T10:59:59;97298.53;;;6.36;100.00
72721;BME280;60835;50.974;10.322;2024-01-06T11:02:27;97314.59;;;6.25;100.00
72721;BME280;60835;50.974;10.322;2024-01-06T11:04:54;97297.09;;;6.41;100.00
72721;BME280;60835;50.974;10.322;2024-01-06T11:07:23;97296.75;;;6.36;100.00
72721;BME280;60835;50.974;10.322;2024-01-06T11:09:57;97294.34;;;6.43;100.00
72721;BME280;60835;50.974;10.322;2024-01-06T11:12:24;97305.63;;;6.35;100.00
72721;BME280;60835;50.974;10.322;2024-01-06T11:14:52;97319.56;;;6.36;100.00
72721;BME280;60835;50.974;10.322;2024-01-06T11:17:52;97319.47;;;6.45;100.00
72721;BME280;60835;50.974;10.322;2024-01-06T11:20:21;97326.34;;;6.46;100.00
72721;BME280;60835;50.974;10.322;2024-01-06T11:22:48;97333.38;;;6.38;100.00
72721;BME280;60835;50.974;10.322;2024-01-06T11:25:17;97336.84;;;6.46;100.00
72721;BME280;60835;50.974;10.322;2024-01-06T11:27:46;97323.19;;;6.35;100.00
72721;BME280;60835;50.974;10.322;2024-01-06T11:30:26;97353.03;;;6.34;100.00
72721;BME280;60835;50.974;10.322;2024-01-06T11:32:55;97354.47;;;6.28;100.00
72721;BME280;60835;50.974;10.322;2024-01-06T11:35:27;97358.34;;;6.42;100.00
72721;BME280;60835;50.974;10.322;2024-01-06T11:38:12;97363.25;;;6.37;100.00
72721;BME280;60835;50.974;10.322;2024-01-06T11:40:38;97355.00;;;6.57;100.00
72721;BME280;60835;50.974;10.322;2024-01-06T11:43:10;97341.13;;;6.47;100.00
72721;BME280;60835;50.974;10.322;2024-01-06T11:45:38;97366.34;;;6.58;100.00
72721;BME280;60835;50.974;10.322;2024-01-06T11:48:08;97357.84;;;6.64;100.00
72721;BME280;60835;50.974;10.322;2024-01-06T11:50:36;97356.03;;;6.64;100.00
72721;BME280;60835;50.974;10.322;2024-01-06T11:53:03;97345.19;;;6.67;100.00
72721;BME280;60835;50.974;10.322;2024-01-06T11:55:30;97353.72;;;6.61;100.00
72721;BME280;60835;50.974;10.322;2024-01-06T11:58:01;97351.88;;;6.62;100.00
72721;BME280;60835;50.974;10.322;2024-01-06T12:00:30;97335.69;;;6.66;100.00
72721;BME280;60835;50.974;10.322;2024-01-06T12:02:58;97345.41;;;6.74;100.00
72721;BME280;60835;50.974;10.322;2024-01-06T12:05:25;97344.38;;;6.67;100.00
72721;BME280;60835;50.974;10.322;2024-01-06T12:07:54;97347.16;;;6.65;100.00
72721;BME280;60835;50.974;10.322;2024-01-06T12:10:21;97322.50;;;6.58;100.00
72721;BME280;60835;50.974;10.322;2024-01-06T12:13:00;97315.75;;;6.56;100.00
72721;BME280;60835;50.974;10.322;2024-01-06T12:15:28;97311.50;;;6.63;100.00
72721;BME280;60835;50.974;10.322;2024-01-06T12:17:56;97294.50;;;6.75;100.00
72721;BME280;60835;50.974;10.322;2024-01-06T12:20:23;97268.53;;;6.72;100.00
72721;BME280;60835;50.974;10.322;2024-01-06T12:22:51;97264.56;;;6.76;100.00
72721;BME280;60835;50.974;10.322;2024-01-06T12:25:18;97259.63;;;6.73;100.00
72721;BME280;60835;50.974;10.322;2024-01-06T12:27:48;97246.81;;;6.70;100.00
72721;BME280;60835;50.974;10.322;2024-01-06T12:30:17;97236.44;;;6.60;100.00
72721;BME280;60835;50.974;10.322;2024-01-06T12:32:46;97233.69;;;6.78;100.00
72721;BME280;60835;50.974;10.322;2024-01-06T12:35:16;97223.50;;;6.67;100.00
72721;BME280;60835;50.974;10.322;2024-01-06T12:37:43;97222.38;;;6.78;100.00
72721;BME280;60835;50.974;10.322;2024-01-06T12:40:15;97230.00;;;6.55;100.00
72721;BME280;60835;50.974;10.322;2024-01-06T12:42:44;97217.19;;;6.52;100.00
72721;BME280;60835;50.974;10.322;2024-01-06T12:45:11;97216.06;;;6.62;100.00
72721;BME280;60835;50.974;10.322;2024-01-06T12:47:39;97215.66;;;6.75;100.00
72721;BME280;60835;50.974;10.322;2024-01-06T12:50:06;97194.28;;;6.78;100.00
72721;BME280;60835;50.974;10.322;2024-01-06T12:52:34;97195.94;;;6.79;100.00